Terminal Aerodrome Forecast
Issued by NWS State College, PA

Home | Current Version | Previous Version | Text Only | Print | Product List | Glossary On
Versions: 1 2 3 4 5 6 7 8 9 10 11 12 13 14 15 16 17 18 19 20 21 22 23 24 25 26 27 28 29 30 31 32 33 34 35 36 37 38 39 40 41 42 43 44 45 46
000
FTUS41 KCTP 231148
TAFIPT
TAF
KIPT 231148Z 2312/2412 00000KT P6SM FEW050 SCT070 OVC090
     FM231500 14005KT P6SM SCT250
     FM240200 15007KT P6SM SCT025 OVC050
     FM240400 16005KT 4SM -RA BR OVC025 WS020/18034KT=

USA.gov is the U.S. government's official web portal to all federal, state and local government web resources and services.